Time;durP1;ratioP1;P1;durP2;ratioP2;P2;SDS_P1;SDS_P2;PMS_P1;PMS_P2;Temp;Humidity;BMP_temperature;BMP_pressure;BME280_temperature;BME280_humidity;BME280_pressure;Samples;Min_cycle;Max_cycle;Signal;HPM_P1;HPM_P2
2023/01/25 00:00:41;;;;;;;0.10;0.10;;;2.50;99.90;;;;;;5058861;28;20737;-84
2023/01/25 00:03:07;;;;;;;0.10;0.10;;;2.60;99.90;;;;;;5063244;28;20185;-80
2023/01/25 00:05:33;;;;;;;0.00;0.00;;;2.60;99.90;;;;;;5061275;28;20264;-81
2023/01/25 00:07:59;;;;;;;0.10;0.10;;;2.60;99.90;;;;;;5066151;28;20781;-82
2023/01/25 00:10:27;;;;;;;0.03;0.03;;;2.60;99.90;;;;;;5061331;28;20186;-81
2023/01/25 00:12:54;;;;;;;0.10;0.10;;;2.70;99.90;;;;;;5062424;28;20195;-82
2023/01/25 00:15:20;;;;;;;0.10;0.10;;;2.60;99.90;;;;;;5061824;28;20282;-81
2023/01/25 00:17:48;;;;;;;0.00;0.00;;;2.60;99.90;;;;;;5062444;28;20177;-81
2023/01/25 00:20:14;;;;;;;0.10;0.10;;;2.60;99.90;;;;;;5063256;28;20220;-81
2023/01/25 00:22:40;;;;;;;0.10;0.10;;;2.60;99.90;;;;;;5062077;28;20585;-81
2023/01/25 00:25:09;;;;;;;0.10;0.10;;;2.80;99.90;;;;;;5060997;28;20206;-82
2023/01/25 00:27:35;;;;;;;0.10;0.10;;;2.70;99.90;;;;;;5062501;28;20195;-81
2023/01/25 00:30:01;;;;;;;0.00;0.00;;;2.80;99.90;;;;;;5060034;28;20194;-81
2023/01/25 00:32:41;;;;;;;0.07;0.07;;;3.00;99.90;;;;;;5058812;28;20208;-81
2023/01/25 00:35:10;;;;;;;0.10;0.10;;;2.80;99.90;;;;;;5061651;28;20560;-81
2023/01/25 00:37:42;;;;;;;0.10;0.10;;;2.70;99.90;;;;;;5061002;28;20187;-82
2023/01/25 00:40:09;;;;;;;0.10;0.10;;;2.70;99.90;;;;;;5055316;28;20189;-82
2023/01/25 00:42:35;;;;;;;0.00;0.00;;;2.60;99.90;;;;;;5061094;28;20197;-82
2023/01/25 00:45:02;;;;;;;0.10;0.10;;;2.60;99.90;;;;;;5061749;28;20191;-80
2023/01/25 00:47:28;;;;;;;0.10;0.10;;;2.50;99.90;;;;;;5057686;28;20203;-81
2023/01/25 00:49:54;;;;;;;0.10;0.10;;;2.50;99.90;;;;;;5062857;28;20225;-81
2023/01/25 00:52:21;;;;;;;0.10;0.10;;;2.40;99.90;;;;;;5059177;28;20195;-82
2023/01/25 00:54:47;;;;;;;0.10;0.10;;;2.40;99.90;;;;;;5061227;28;20209;-82
2023/01/25 00:57:13;;;;;;;0.00;0.00;;;2.50;99.90;;;;;;5058957;28;20534;-80
2023/01/25 00:59:43;;;;;;;0.10;0.10;;;2.60;99.90;;;;;;5061998;28;20288;-81
2023/01/25 01:02:09;;;;;;;0.10;0.10;;;2.50;99.90;;;;;;5060495;28;20736;-81
2023/01/25 01:04:35;;;;;;;0.10;0.10;;;2.50;99.90;;;;;;5060569;28;20742;-81
2023/01/25 01:07:02;;;;;;;0.10;0.10;;;2.50;99.90;;;;;;5062450;28;20188;-80
2023/01/25 01:09:30;;;;;;;0.10;0.10;;;2.40;99.90;;;;;;5059598;28;20215;-81
2023/01/25 01:11:56;;;;;;;0.10;0.10;;;2.50;99.90;;;;;;5062576;28;20272;-82
2023/01/25 01:14:22;;;;;;;0.10;0.10;;;2.40;99.90;;;;;;5063092;28;21132;-81
2023/01/25 01:16:48;;;;;;;0.30;0.30;;;2.50;99.90;;;;;;5064304;28;20794;-81
2023/01/25 01:19:15;;;;;;;0.10;0.10;;;2.40;99.90;;;;;;5063239;28;20242;-81
2023/01/25 01:21:44;;;;;;;0.10;0.10;;;2.40;99.90;;;;;;5062779;28;20271;-81
2023/01/25 01:24:10;;;;;;;0.10;0.10;;;2.40;99.90;;;;;;5065012;28;20192;-81
2023/01/25 01:26:36;;;;;;;0.10;0.10;;;2.40;99.90;;;;;;5060032;28;20196;-82
2023/01/25 01:29:02;;;;;;;0.10;0.10;;;2.50;99.90;;;;;;5063919;28;20212;-82
2023/01/25 01:31:28;;;;;;;0.10;0.10;;;2.50;99.90;;;;;;5061629;28;20198;-81
2023/01/25 01:33:57;;;;;;;0.10;0.10;;;2.40;99.90;;;;;;5064502;28;20196;-81
2023/01/25 01:36:27;;;;;;;0.10;0.10;;;2.40;99.90;;;;;;5062381;28;20518;-81
2023/01/25 01:38:54;;;;;;;0.07;0.07;;;2.30;99.90;;;;;;5062363;28;20204;-81
2023/01/25 01:41:21;;;;;;;0.10;0.10;;;2.40;99.90;;;;;;5063357;28;20182;-81
2023/01/25 01:43:47;;;;;;;0.10;0.10;;;2.40;99.90;;;;;;5058591;28;20187;-81
2023/01/25 01:46:22;;;;;;;0.00;0.00;;;2.40;99.90;;;;;;5059941;28;20184;-81
2023/01/25 01:48:57;;;;;;;0.10;0.10;;;2.50;99.90;;;;;;5060298;28;20215;-81
2023/01/25 01:51:41;;;;;;;0.10;0.10;;;2.40;99.90;;;;;;5058626;28;20249;-81
2023/01/25 01:54:24;;;;;;;0.10;0.10;;;2.40;99.90;;;;;;5061084;28;20289;-82
2023/01/25 01:57:01;;;;;;;0.10;0.10;;;2.50;99.90;;;;;;5059456;28;20177;-82
2023/01/25 01:59:42;;;;;;;0.37;0.37;;;2.40;99.90;;;;;;5062632;28;20297;-82
2023/01/25 02:02:08;;;;;;;0.57;0.57;;;2.40;99.90;;;;;;5066272;28;20658;-81
2023/01/25 02:04:35;;;;;;;0.10;0.10;;;2.40;99.90;;;;;;5061231;28;21019;-82
2023/01/25 02:07:09;;;;;;;0.10;0.10;;;2.40;99.90;;;;;;5058870;28;20659;-81
2023/01/25 02:09:36;;;;;;;0.07;0.07;;;2.30;99.90;;;;;;5059649;28;20226;-81
2023/01/25 02:12:05;;;;;;;0.10;0.10;;;2.20;99.90;;;;;;5059218;28;20402;-82
2023/01/25 02:14:32;;;;;;;0.10;0.10;;;2.20;99.90;;;;;;5060417;28;20213;-82
2023/01/25 02:16:58;;;;;;;0.10;0.10;;;2.20;99.90;;;;;;5060168;28;20184;-81
2023/01/25 02:19:38;;;;;;;0.10;0.10;;;2.20;99.90;;;;;;5061309;28;20211;-82
2023/01/25 02:22:09;;;;;;;0.10;0.10;;;2.20;99.90;;;;;;5059890;28;20501;-82
2023/01/25 02:24:38;;;;;;;0.10;0.10;;;2.20;99.90;;;;;;5058199;28;20321;-80
2023/01/25 02:27:07;;;;;;;0.10;0.10;;;2.20;99.90;;;;;;5060042;28;20198;-82
2023/01/25 02:29:34;;;;;;;0.10;0.10;;;2.20;99.90;;;;;;5058755;28;20667;-81
2023/01/25 02:32:03;;;;;;;0.07;0.07;;;2.30;99.90;;;;;;5060285;28;20239;-82
2023/01/25 02:34:32;;;;;;;0.10;0.10;;;2.20;99.90;;;;;;5057303;28;20204;-80
2023/01/25 02:36:58;;;;;;;0.00;0.00;;;2.20;99.90;;;;;;5058496;28;20203;-82
2023/01/25 02:39:28;;;;;;;0.10;0.10;;;2.20;99.90;;;;;;5058681;28;20565;-81
2023/01/25 02:41:54;;;;;;;0.10;0.10;;;2.10;99.90;;;;;;5060147;28;20183;-82
2023/01/25 02:44:26;;;;;;;0.10;0.10;;;2.20;99.90;;;;;;5061570;28;20261;-82
2023/01/25 02:46:53;;;;;;;0.00;0.00;;;2.10;99.90;;;;;;5059921;28;20271;-81
2023/01/25 02:49:19;;;;;;;0.10;0.10;;;2.10;99.90;;;;;;5060456;28;20215;-81
2023/01/25 02:51:48;;;;;;;1.10;1.10;;;2.10;99.90;;;;;;5059599;28;20614;-82
2023/01/25 02:54:16;;;;;;;0.10;0.10;;;2.10;99.90;;;;;;5060660;28;20741;-82
2023/01/25 02:56:42;;;;;;;0.10;0.10;;;2.10;99.90;;;;;;5058211;28;20589;-81
2023/01/25 02:59:09;;;;;;;0.10;0.10;;;2.10;99.90;;;;;;5058737;28;20206;-82
2023/01/25 03:01:37;;;;;;;0.10;0.10;;;2.20;99.90;;;;;;5059619;28;20197;-82
2023/01/25 03:04:06;;;;;;;0.10;0.10;;;2.20;99.90;;;;;;5061032;28;20191;-81
2023/01/25 03:06:33;;;;;;;0.10;0.10;;;2.20;99.90;;;;;;5057539;28;20629;-81
2023/01/25 03:09:00;;;;;;;3.07;2.97;;;2.10;99.90;;;;;;5059919;28;20208;-81
2023/01/25 03:11:26;;;;;;;0.10;0.10;;;2.10;99.90;;;;;;5058732;28;20256;-82
2023/01/25 03:13:52;;;;;;;0.10;0.10;;;2.10;99.90;;;;;;5060229;28;20657;-82
2023/01/25 03:16:18;;;;;;;0.10;0.10;;;2.20;99.90;;;;;;5057749;28;20185;-82
2023/01/25 03:18:44;;;;;;;0.10;0.10;;;2.10;99.90;;;;;;5059533;28;20554;-81
2023/01/25 03:21:16;;;;;;;0.33;0.33;;;2.20;99.90;;;;;;5059720;28;20245;-81
2023/01/25 03:23:43;;;;;;;0.10;0.10;;;2.20;99.90;;;;;;5059658;28;20187;-82
2023/01/25 03:26:18;;;;;;;0.00;0.00;;;2.10;99.90;;;;;;5059067;28;20682;-82
2023/01/25 03:28:44;;;;;;;0.10;0.10;;;2.00;99.90;;;;;;5059456;28;20344;-82
2023/01/25 03:31:12;;;;;;;0.10;0.10;;;2.00;99.90;;;;;;5061830;28;20261;-81
2023/01/25 03:33:38;;;;;;;0.10;0.10;;;2.00;99.90;;;;;;5063316;28;20694;-82
2023/01/25 03:36:06;;;;;;;0.10;0.10;;;2.00;99.90;;;;;;5061891;28;20213;-83
2023/01/25 03:38:35;;;;;;;0.10;0.10;;;2.00;99.90;;;;;;5061121;28;21242;-81
2023/01/25 03:41:02;;;;;;;0.10;0.10;;;2.00;99.90;;;;;;5061401;28;20218;-81
2023/01/25 03:43:30;;;;;;;0.10;0.10;;;2.00;99.90;;;;;;5062141;28;20225;-82
2023/01/25 03:46:00;;;;;;;0.10;0.10;;;1.90;99.90;;;;;;5063905;28;20742;-81
2023/01/25 03:48:27;;;;;;;0.00;0.00;;;1.90;99.90;;;;;;5064595;28;20272;-80
2023/01/25 03:50:55;;;;;;;0.10;0.10;;;1.90;99.90;;;;;;5061965;28;21206;-82
2023/01/25 03:53:28;;;;;;;0.07;0.07;;;1.90;99.90;;;;;;5064380;28;20707;-81
2023/01/25 03:56:10;;;;;;;0.10;0.10;;;1.90;99.90;;;;;;5063962;28;20215;-82
2023/01/25 03:58:37;;;;;;;0.10;0.10;;;2.00;99.90;;;;;;5060626;28;20212;-81
2023/01/25 04:01:05;;;;;;;0.10;0.10;;;2.00;99.90;;;;;;5060492;28;20540;-81
2023/01/25 04:03:32;;;;;;;0.10;0.10;;;1.90;99.90;;;;;;5065064;28;20237;-82
2023/01/25 04:05:58;;;;;;;0.10;0.10;;;1.90;99.90;;;;;;5061980;28;20975;-83
2023/01/25 04:08:25;;;;;;;0.10;0.10;;;2.10;99.90;;;;;;5060938;28;20702;-81
2023/01/25 04:10:53;;;;;;;0.10;0.10;;;2.10;99.90;;;;;;5062596;28;20773;-81
2023/01/25 04:13:20;;;;;;;0.10;0.10;;;2.20;99.90;;;;;;5064529;28;20188;-83
2023/01/25 04:15:47;;;;;;;0.10;0.10;;;2.10;99.90;;;;;;5062397;28;20584;-81
2023/01/25 04:18:14;;;;;;;0.10;0.10;;;2.10;99.90;;;;;;5061170;28;20212;-82
2023/01/25 04:20:40;;;;;;;0.10;0.10;;;2.00;99.90;;;;;;5063051;28;20639;-80
2023/01/25 04:23:07;;;;;;;0.77;0.77;;;2.00;99.90;;;;;;5066158;28;21007;-82
2023/01/25 04:25:33;;;;;;;0.13;0.13;;;1.90;99.90;;;;;;5062903;28;20191;-82
2023/01/25 04:28:00;;;;;;;0.10;0.10;;;1.90;99.90;;;;;;5061679;28;20609;-81
2023/01/25 04:30:26;;;;;;;0.10;0.10;;;1.90;99.90;;;;;;5060463;28;20215;-82
2023/01/25 04:32:52;;;;;;;0.10;0.10;;;1.90;99.90;;;;;;5064133;28;20219;-82
2023/01/25 04:35:21;;;;;;;0.10;0.10;;;1.90;99.90;;;;;;5063125;28;20412;-82
2023/01/25 04:37:55;;;;;;;0.10;0.10;;;1.90;99.90;;;;;;5061275;28;20188;-82
2023/01/25 04:40:22;;;;;;;0.10;0.10;;;1.90;99.90;;;;;;5061165;28;20196;-81
2023/01/25 04:42:48;;;;;;;0.10;0.10;;;1.80;99.90;;;;;;5060612;28;20558;-82
2023/01/25 04:45:14;;;;;;;0.30;0.30;;;1.70;99.90;;;;;;5064682;28;20186;-81
2023/01/25 04:47:41;;;;;;;0.10;0.10;;;1.70;99.90;;;;;;5059749;28;20282;-82
2023/01/25 04:50:08;;;;;;;0.10;0.10;;;1.70;99.90;;;;;;5061780;28;20528;-82
2023/01/25 04:52:37;;;;;;;0.10;0.10;;;1.70;99.90;;;;;;5063793;28;20191;-81
2023/01/25 04:55:04;;;;;;;0.10;0.10;;;1.80;99.90;;;;;;5064187;28;20218;-82
2023/01/25 04:57:30;;;;;;;0.10;0.10;;;1.70;99.90;;;;;;5059164;28;20610;-81
2023/01/25 04:59:59;;;;;;;20.10;15.63;;;1.80;99.90;;;;;;5062918;28;20223;-83
2023/01/25 05:02:26;;;;;;;0.10;0.10;;;1.90;99.90;;;;;;5063483;28;20304;-82
2023/01/25 05:04:53;;;;;;;0.10;0.10;;;1.90;99.90;;;;;;5069170;28;20539;-82
2023/01/25 05:07:19;;;;;;;0.10;0.10;;;1.80;99.90;;;;;;5060468;28;20231;-82
2023/01/25 05:09:48;;;;;;;0.10;0.10;;;1.80;99.90;;;;;;5059695;28;20247;-82
2023/01/25 05:12:15;;;;;;;0.00;0.00;;;1.70;99.90;;;;;;5062818;28;20237;-82
2023/01/25 05:14:41;;;;;;;0.10;0.10;;;1.70;99.90;;;;;;5063608;28;20260;-80
2023/01/25 05:17:08;;;;;;;0.10;0.10;;;1.80;99.90;;;;;;5063313;28;20308;-82
2023/01/25 05:19:37;;;;;;;0.00;0.00;;;1.70;99.90;;;;;;5070990;28;20301;-82
2023/01/25 05:22:11;;;;;;;0.10;0.10;;;1.70;99.90;;;;;;5064133;28;20225;-81
2023/01/25 05:24:40;;;;;;;0.10;0.10;;;1.70;99.90;;;;;;5061578;28;20196;-83
2023/01/25 05:27:07;;;;;;;0.10;0.10;;;1.70;99.90;;;;;;5061011;28;20195;-81
2023/01/25 05:29:39;;;;;;;0.10;0.10;;;1.70;99.90;;;;;;5062877;28;20211;-82
2023/01/25 05:32:11;;;;;;;0.10;0.10;;;1.80;99.90;;;;;;5062258;28;20191;-82
2023/01/25 05:34:41;;;;;;;0.10;0.10;;;1.70;99.90;;;;;;5063422;28;20212;-82
2023/01/25 05:37:10;;;;;;;0.10;0.10;;;1.70;99.90;;;;;;5062997;28;20227;-81
2023/01/25 05:39:36;;;;;;;0.10;0.10;;;1.70;99.90;;;;;;5061821;28;20212;-82
2023/01/25 05:42:11;;;;;;;0.10;0.10;;;1.80;99.90;;;;;;5059188;28;20187;-82
2023/01/25 05:44:43;;;;;;;0.10;0.10;;;1.80;99.90;;;;;;5057365;28;20184;-81
2023/01/25 05:47:15;;;;;;;0.10;0.10;;;1.90;99.90;;;;;;5061464;28;20191;-82
2023/01/25 05:49:42;;;;;;;0.00;0.00;;;1.80;99.90;;;;;;5059665;28;20310;-82
2023/01/25 05:52:13;;;;;;;0.10;0.10;;;1.80;99.90;;;;;;5059961;28;20539;-83
2023/01/25 05:54:40;;;;;;;0.10;0.10;;;1.80;99.90;;;;;;5061066;28;20208;-82
2023/01/25 05:57:06;;;;;;;0.27;0.27;;;1.90;99.90;;;;;;5059920;28;20468;-82
2023/01/25 05:59:35;;;;;;;0.00;0.00;;;1.90;99.90;;;;;;5057410;28;20218;-82
2023/01/25 06:02:02;;;;;;;0.10;0.10;;;2.00;99.90;;;;;;5058741;28;20700;-83
2023/01/25 06:04:29;;;;;;;0.10;0.10;;;2.00;99.90;;;;;;5056979;28;20191;-81
2023/01/25 06:06:55;;;;;;;0.10;0.10;;;1.90;99.90;;;;;;5059010;28;20237;-82
2023/01/25 06:09:22;;;;;;;0.10;0.10;;;2.00;99.90;;;;;;5065555;28;20207;-82
2023/01/25 06:11:49;;;;;;;0.20;0.20;;;1.80;99.90;;;;;;5060612;28;20198;-82
2023/01/25 06:14:14;;;;;;;0.10;0.10;;;1.80;99.90;;;;;;5058961;28;20201;-82
2023/01/25 06:16:41;;;;;;;0.10;0.10;;;1.70;99.90;;;;;;5062013;28;20661;-82
2023/01/25 06:19:08;;;;;;;0.10;0.10;;;1.80;99.90;;;;;;5058166;28;20204;-82
2023/01/25 06:21:37;;;;;;;0.10;0.10;;;1.80;99.90;;;;;;5059540;28;20199;-82
2023/01/25 06:24:06;;;;;;;0.10;0.10;;;1.80;99.90;;;;;;5060661;28;20243;-81
2023/01/25 06:26:33;;;;;;;0.10;0.10;;;2.00;99.90;;;;;;5056001;28;20632;-81
2023/01/25 06:29:06;;;;;;;0.10;0.10;;;2.20;99.90;;;;;;5057447;28;20234;-81
2023/01/25 06:31:33;;;;;;;0.10;0.10;;;2.00;99.90;;;;;;5063292;28;20586;-82
2023/01/25 06:34:03;;;;;;;0.10;0.10;;;1.90;99.90;;;;;;5058370;28;20211;-81
2023/01/25 06:36:29;;;;;;;0.10;0.10;;;1.80;99.90;;;;;;5059748;28;20195;-81
2023/01/25 06:38:56;;;;;;;0.10;0.10;;;2.00;99.90;;;;;;5059348;28;20202;-81
2023/01/25 06:41:22;;;;;;;0.10;0.10;;;2.10;99.90;;;;;;5056572;28;20190;-81
2023/01/25 06:43:57;;;;;;;0.03;0.03;;;2.20;99.90;;;;;;5061758;28;20215;-79
2023/01/25 06:49:12;;;;;;;0.10;0.10;;;2.00;99.90;;;;;;5058652;28;20225;-81
2023/01/25 06:51:38;;;;;;;0.10;0.10;;;1.70;99.90;;;;;;5053258;28;20189;-81
2023/01/25 06:54:07;;;;;;;0.10;0.10;;;1.50;99.90;;;;;;5056653;28;20183;-82
2023/01/25 06:56:33;;;;;;;0.10;0.10;;;1.60;99.90;;;;;;5067174;28;20247;-82
2023/01/25 06:58:59;;;;;;;0.10;0.10;;;1.80;99.90;;;;;;5057985;28;20340;-82
2023/01/25 07:01:29;;;;;;;0.10;0.10;;;1.70;99.90;;;;;;5059881;28;20261;-83
2023/01/25 07:03:57;;;;;;;0.10;0.10;;;1.70;99.90;;;;;;5055670;28;20183;-82
2023/01/25 07:06:32;;;;;;;0.10;0.10;;;1.70;99.90;;;;;;5057476;28;20212;-83
2023/01/25 07:09:08;;;;;;;0.10;0.10;;;1.70;99.90;;;;;;5053939;28;20280;-81
2023/01/25 07:11:40;;;;;;;0.10;0.10;;;1.60;99.90;;;;;;5053342;28;20183;-83
2023/01/25 07:14:08;;;;;;;0.10;0.10;;;1.60;99.90;;;;;;5055773;28;20195;-82
2023/01/25 07:16:37;;;;;;;0.10;0.10;;;1.40;99.90;;;;;;5054753;28;20188;-82
2023/01/25 07:19:07;;;;;;;0.10;0.10;;;1.40;99.90;;;;;;5061333;28;20323;-83
2023/01/25 07:21:36;;;;;;;0.10;0.10;;;1.40;99.90;;;;;;5063622;28;20176;-83
2023/01/25 07:24:04;;;;;;;0.10;0.10;;;1.40;99.90;;;;;;5061110;28;20222;-84
2023/01/25 07:26:38;;;;;;;0.10;0.10;;;1.50;99.90;;;;;;5060569;28;20184;-83
2023/01/25 07:29:08;;;;;;;0.10;0.10;;;1.40;99.90;;;;;;5062186;28;20240;-83
2023/01/25 07:31:37;;;;;;;2.37;1.63;;;1.40;99.90;;;;;;5071423;28;20184;-83
2023/01/25 07:34:13;;;;;;;0.10;0.10;;;1.40;99.90;;;;;;5063015;28;20191;-81
2023/01/25 07:36:40;;;;;;;0.10;0.10;;;1.30;99.90;;;;;;5060593;28;20250;-82
2023/01/25 07:39:09;;;;;;;0.10;0.10;;;1.30;99.90;;;;;;5061264;28;20202;-83
2023/01/25 07:41:38;;;;;;;0.10;0.10;;;1.30;99.90;;;;;;5071223;28;20186;-82
2023/01/25 07:44:04;;;;;;;0.10;0.10;;;1.20;99.90;;;;;;5053621;28;20180;-82
2023/01/25 07:46:31;;;;;;;0.10;0.10;;;1.20;99.90;;;;;;5061506;28;20194;-82
2023/01/25 07:49:00;;;;;;;0.10;0.10;;;1.30;99.90;;;;;;5059249;28;20203;-81
2023/01/25 07:51:35;;;;;;;0.00;0.00;;;1.30;99.90;;;;;;5059995;28;20186;-82
2023/01/25 07:54:04;;;;;;;0.10;0.10;;;1.30;99.90;;;;;;5059830;28;20565;-81
2023/01/25 07:56:32;;;;;;;0.10;0.10;;;1.40;99.90;;;;;;5073129;28;20217;-82
2023/01/25 07:59:07;;;;;;;0.10;0.10;;;1.40;99.90;;;;;;5059512;28;20574;-81
2023/01/25 08:01:33;;;;;;;0.00;0.00;;;1.50;99.90;;;;;;5055780;28;20275;-83
2023/01/25 08:04:03;;;;;;;0.10;0.10;;;1.50;99.90;;;;;;5057755;28;20295;-81
2023/01/25 08:06:37;;;;;;;0.10;0.10;;;1.30;99.90;;;;;;5061696;28;20243;-81
2023/01/25 08:09:19;;;;;;;0.10;0.10;;;1.30;99.90;;;;;;5058756;28;20726;-82
2023/01/25 08:11:48;;;;;;;0.10;0.10;;;1.30;99.90;;;;;;5058627;28;20192;-82
2023/01/25 08:14:17;;;;;;;0.10;0.10;;;1.30;99.90;;;;;;5063705;28;20726;-82
2023/01/25 08:16:49;;;;;;;0.10;0.10;;;1.30;99.90;;;;;;5064785;28;20183;-82
2023/01/25 08:19:15;;;;;;;0.10;0.10;;;1.30;99.90;;;;;;5064370;28;20234;-82
2023/01/25 08:21:41;;;;;;;0.10;0.10;;;1.30;99.90;;;;;;5066112;28;20217;-81
2023/01/25 08:24:08;;;;;;;0.10;0.10;;;1.30;99.90;;;;;;5066039;28;20189;-83
2023/01/25 08:26:35;;;;;;;0.10;0.10;;;1.30;99.90;;;;;;5060003;28;20195;-81
2023/01/25 08:29:02;;;;;;;0.10;0.10;;;1.30;99.90;;;;;;5061191;28;20302;-81
2023/01/25 08:31:33;;;;;;;0.10;0.10;;;1.30;99.90;;;;;;5057310;28;20347;-84
2023/01/25 08:34:00;;;;;;;0.10;0.10;;;1.30;99.90;;;;;;5055282;28;20247;-82
2023/01/25 08:36:26;;;;;;;0.10;0.10;;;1.30;99.90;;;;;;5059680;28;20197;-82
2023/01/25 08:39:08;;;;;;;0.10;0.10;;;1.30;99.90;;;;;;5054681;28;20209;-82
2023/01/25 08:41:41;;;;;;;0.10;0.10;;;1.40;99.90;;;;;;5074372;28;20184;-81
2023/01/25 08:44:10;;;;;;;0.10;0.10;;;1.40;99.90;;;;;;5060665;28;20217;-82
2023/01/25 08:46:37;;;;;;;0.00;0.00;;;1.40;99.90;;;;;;5060786;28;20232;-81
2023/01/25 08:49:04;;;;;;;0.10;0.10;;;1.50;99.90;;;;;;5064581;28;20226;-82
2023/01/25 08:51:33;;;;;;;0.10;0.10;;;1.50;99.90;;;;;;5062932;28;20188;-81
2023/01/25 08:54:06;;;;;;;0.10;0.10;;;1.50;99.90;;;;;;5062420;28;20190;-82
2023/01/25 08:56:31;;;;;;;0.10;0.10;;;1.50;99.90;;;;;;5061822;28;20186;-82
2023/01/25 08:58:58;;;;;;;0.10;0.10;;;1.50;99.90;;;;;;5064685;28;20217;-82
2023/01/25 09:01:26;;;;;;;0.10;0.10;;;1.50;99.90;;;;;;5062663;28;20281;-81
2023/01/25 09:03:53;;;;;;;0.10;0.10;;;1.70;99.90;;;;;;5063036;28;20196;-82
2023/01/25 09:06:20;;;;;;;0.10;0.10;;;1.50;99.90;;;;;;5062509;28;20186;-81
2023/01/25 09:08:47;;;;;;;0.10;0.10;;;1.50;99.90;;;;;;5062565;28;20212;-81
2023/01/25 09:11:19;;;;;;;0.10;0.10;;;1.50;99.90;;;;;;5060600;28;20304;-82
2023/01/25 09:13:47;;;;;;;0.10;0.10;;;1.50;99.90;;;;;;5062608;28;20194;-82
2023/01/25 09:16:27;;;;;;;0.10;0.10;;;1.60;99.90;;;;;;5062124;28;20564;-81
2023/01/25 09:19:00;;;;;;;0.10;0.10;;;1.50;99.90;;;;;;5063875;28;20693;-81
2023/01/25 09:21:27;;;;;;;0.10;0.10;;;1.50;99.90;;;;;;5063654;28;20192;-82
2023/01/25 09:23:56;;;;;;;0.10;0.10;;;1.50;99.90;;;;;;5061327;28;20238;-82
2023/01/25 09:26:22;;;;;;;0.77;0.77;;;1.50;99.90;;;;;;5061726;28;20227;-82
2023/01/25 09:28:55;;;;;;;0.10;0.10;;;1.50;99.90;;;;;;5062430;28;20202;-82
2023/01/25 09:31:21;;;;;;;0.10;0.10;;;1.40;99.90;;;;;;5059247;28;20642;-81
2023/01/25 09:33:49;;;;;;;0.00;0.00;;;1.40;99.90;;;;;;5061194;28;20183;-83
2023/01/25 09:36:15;;;;;;;0.10;0.10;;;1.50;99.90;;;;;;5061416;28;20562;-81
2023/01/25 09:38:41;;;;;;;0.10;0.10;;;1.40;99.90;;;;;;5062533;28;20206;-81
2023/01/25 09:41:21;;;;;;;0.10;0.10;;;1.50;99.90;;;;;;5057212;28;20244;-81
2023/01/25 09:43:56;;;;;;;0.10;0.10;;;1.50;99.90;;;;;;5056237;28;20189;-83
2023/01/25 09:46:32;;;;;;;0.10;0.10;;;1.50;99.90;;;;;;5059212;28;20186;-82
2023/01/25 09:49:35;;;;;;;0.10;0.10;;;1.60;99.90;;;;;;5051216;28;20295;-85
2023/01/25 09:52:30;;;;;;;0.10;0.10;;;1.80;99.90;;;;;;5059607;28;20184;-85
2023/01/25 09:54:56;;;;;;;0.10;0.10;;;1.70;99.90;;;;;;5058122;28;20225;-82
2023/01/25 09:57:36;;;;;;;1.20;1.20;;;1.70;99.90;;;;;;5061598;28;20252;-82
2023/01/25 10:00:16;;;;;;;0.10;0.10;;;1.60;99.90;;;;;;5060843;28;20270;-83
2023/01/25 10:02:53;;;;;;;0.10;0.10;;;1.80;99.90;;;;;;5062072;28;20183;-82
2023/01/25 10:05:27;;;;;;;0.10;0.10;;;2.10;99.90;;;;;;5058170;28;20207;-83
2023/01/25 10:08:06;;;;;;;0.10;0.10;;;2.20;99.90;;;;;;5059429;28;20191;-82
2023/01/25 10:10:43;;;;;;;0.10;0.10;;;1.90;99.90;;;;;;5059129;28;20206;-82
2023/01/25 10:13:20;;;;;;;0.10;0.10;;;2.10;99.90;;;;;;5055681;28;20183;-83
2023/01/25 10:15:59;;;;;;;0.10;0.10;;;2.30;99.90;;;;;;5057894;28;20213;-82
2023/01/25 10:19:10;;;;;;;0.10;0.10;;;2.40;99.90;;;;;;5057559;28;20237;-83
2023/01/25 10:21:47;;;;;;;0.10;0.10;;;2.00;99.90;;;;;;5061608;28;20656;-82
2023/01/25 10:24:26;;;;;;;0.00;0.00;;;2.10;99.90;;;;;;5052880;28;20278;-82
2023/01/25 10:27:02;;;;;;;0.10;0.10;;;1.90;99.90;;;;;;5056814;28;20234;-83
2023/01/25 10:29:34;;;;;;;0.10;0.10;;;1.80;99.90;;;;;;5057003;28;20318;-83
2023/01/25 10:32:24;;;;;;;0.10;0.10;;;1.80;99.90;;;;;;5055987;28;20184;-81
2023/01/25 10:34:51;;;;;;;0.00;0.00;;;1.70;99.90;;;;;;5057003;28;20357;-82
2023/01/25 10:37:26;;;;;;;0.10;0.10;;;1.80;99.90;;;;;;5059076;28;20188;-82
2023/01/25 10:39:55;;;;;;;0.10;0.10;;;1.70;99.90;;;;;;5059737;28;20925;-81
2023/01/25 10:42:25;;;;;;;0.10;0.10;;;1.80;99.90;;;;;;5060968;28;20550;-82
2023/01/25 10:44:58;;;;;;;0.10;0.10;;;1.90;99.90;;;;;;5061767;28;20351;-82
2023/01/25 10:47:30;;;;;;;0.10;0.10;;;2.10;99.90;;;;;;5059471;28;20266;-82
2023/01/25 10:50:00;;;;;;;0.10;0.10;;;2.30;99.90;;;;;;5068286;28;20222;-82
2023/01/25 10:52:29;;;;;;;0.00;0.00;;;2.30;99.90;;;;;;5058157;28;20206;-82
2023/01/25 10:55:18;;;;;;;0.10;0.10;;;2.20;99.90;;;;;;5058162;28;20239;-82
2023/01/25 10:57:48;;;;;;;0.10;0.10;;;2.30;99.90;;;;;;5056802;28;20222;-83
2023/01/25 11:00:26;;;;;;;0.10;0.10;;;2.20;99.90;;;;;;5058639;28;20198;-82
2023/01/25 11:02:53;;;;;;;0.03;0.03;;;2.40;99.90;;;;;;5058450;28;20203;-82
2023/01/25 11:05:33;;;;;;;0.10;0.10;;;2.70;99.90;;;;;;5058864;28;20198;-83
2023/01/25 11:08:21;;;;;;;0.10;0.10;;;2.40;99.90;;;;;;5060957;28;20255;-82
2023/01/25 11:10:51;;;;;;;0.10;0.10;;;2.70;99.90;;;;;;5060999;28;20992;-81
2023/01/25 11:13:19;;;;;;;0.10;0.10;;;2.60;99.90;;;;;;5057469;28;20274;-81
2023/01/25 11:15:49;;;;;;;0.10;0.10;;;2.40;99.90;;;;;;5053612;28;20326;-82
2023/01/25 11:18:27;;;;;;;0.03;0.03;;;2.40;99.90;;;;;;5057198;28;20211;-83
2023/01/25 11:21:18;;;;;;;0.03;0.03;;;2.60;99.90;;;;;;5058506;28;20245;-83
2023/01/25 11:24:00;;;;;;;0.10;0.10;;;2.20;99.90;;;;;;5059104;28;20179;-81
2023/01/25 11:26:31;;;;;;;0.03;0.03;;;2.30;99.90;;;;;;5058052;28;20261;-81
2023/01/25 11:29:12;;;;;;;0.10;0.10;;;2.20;99.90;;;;;;5056422;28;20215;-83
2023/01/25 11:31:44;;;;;;;0.10;0.10;;;2.50;99.90;;;;;;5057909;28;20195;-83
2023/01/25 11:34:16;;;;;;;0.10;0.10;;;2.30;99.90;;;;;;5056730;28;20717;-81
2023/01/25 11:37:10;;;;;;;0.00;0.00;;;2.00;99.90;;;;;;5056009;28;20189;-81
2023/01/25 11:39:58;;;;;;;0.10;0.10;;;1.90;99.90;;;;;;5053142;28;20228;-81
2023/01/25 11:42:33;;;;;;;0.10;0.10;;;1.70;99.90;;;;;;5058314;28;20195;-81
2023/01/25 11:45:17;;;;;;;0.10;0.10;;;1.70;99.90;;;;;;5058238;28;20190;-83
2023/01/25 11:48:07;;;;;;;0.10;0.10;;;1.70;99.90;;;;;;5067965;28;20187;-83
2023/01/25 11:50:46;;;;;;;0.10;0.10;;;1.60;99.90;;;;;;5073480;28;20249;-81
2023/01/25 11:53:47;;;;;;;0.10;0.10;;;1.70;99.90;;;;;;5052915;28;20727;-80
2023/01/25 11:56:51;;;;;;;0.30;0.30;;;1.90;99.90;;;;;;5058180;28;20234;-80
2023/01/25 11:59:39;;;;;;;0.00;0.00;;;2.00;99.90;;;;;;5060553;28;20207;-82
2023/01/25 12:02:20;;;;;;;0.23;0.23;;;1.60;99.90;;;;;;5058638;28;20186;-81
2023/01/25 12:05:03;;;;;;;0.03;0.03;;;1.70;99.90;;;;;;5060381;28;20209;-81
2023/01/25 12:07:39;;;;;;;0.10;0.10;;;1.90;99.90;;;;;;5061626;28;20179;-82
2023/01/25 12:10:25;;;;;;;0.10;0.10;;;2.00;99.90;;;;;;5056049;28;20192;-81
2023/01/25 12:12:58;;;;;;;0.10;0.10;;;1.80;99.90;;;;;;5062749;28;20558;-81
2023/01/25 12:15:50;;;;;;;0.10;0.10;;;1.50;99.90;;;;;;5060626;28;20573;-81
2023/01/25 12:18:50;;;;;;;0.10;0.10;;;1.60;99.90;;;;;;5062506;28;20207;-81
2023/01/25 12:21:37;;;;;;;0.10;0.10;;;1.60;99.90;;;;;;5061370;28;20192;-82
2023/01/25 12:24:40;;;;;;;0.10;0.10;;;1.70;99.90;;;;;;5062387;28;20178;-80
2023/01/25 12:27:28;;;;;;;0.10;0.10;;;1.70;99.90;;;;;;5061511;28;20185;-82
2023/01/25 12:30:22;;;;;;;0.10;0.10;;;1.50;99.90;;;;;;5062826;28;20231;-82
2023/01/25 12:33:03;;;;;;;0.00;0.00;;;1.50;99.90;;;;;;5061282;28;20199;-82
2023/01/25 12:35:33;;;;;;;0.10;0.10;;;1.70;99.90;;;;;;5062976;28;20224;-81
2023/01/25 12:38:28;;;;;;;0.10;0.10;;;1.80;99.90;;;;;;5062361;28;20205;-81
2023/01/25 12:41:27;;;;;;;0.10;0.10;;;1.80;99.90;;;;;;5057238;28;20203;-82
2023/01/25 12:43:58;;;;;;;0.10;0.10;;;2.00;99.90;;;;;;5060084;28;20915;-81
2023/01/25 12:46:37;;;;;;;0.10;0.10;;;1.90;99.90;;;;;;5055184;28;20203;-81
2023/01/25 12:49:13;;;;;;;0.10;0.10;;;1.90;99.90;;;;;;5058935;28;20212;-79
2023/01/25 12:51:41;;;;;;;0.10;0.10;;;2.00;99.90;;;;;;5058052;28;20232;-80
2023/01/25 12:54:31;;;;;;;0.10;0.10;;;2.30;99.90;;;;;;5059943;28;20191;-81
2023/01/25 12:57:06;;;;;;;0.10;0.10;;;2.60;99.90;;;;;;5047476;28;20698;-80
2023/01/25 13:00:08;;;;;;;0.10;0.10;;;2.70;99.90;;;;;;5053619;28;20209;-80
2023/01/25 13:02:55;;;;;;;0.10;0.10;;;2.90;99.90;;;;;;5053140;28;20220;-80
2023/01/25 13:05:36;;;;;;;0.10;0.10;;;2.90;99.90;;;;;;5053923;28;20177;-81
2023/01/25 13:08:30;;;;;;;0.10;0.10;;;2.70;99.90;;;;;;5058512;28;20213;-80
2023/01/25 13:11:09;;;;;;;0.10;0.10;;;2.30;99.90;;;;;;5054545;28;20964;-82
2023/01/25 13:13:35;;;;;;;0.10;0.10;;;2.20;99.90;;;;;;5054557;28;20241;-83
2023/01/25 13:16:32;;;;;;;0.00;0.00;;;2.00;99.90;;;;;;5036356;28;20211;-83
2023/01/25 13:18:58;;;;;;;0.10;0.10;;;2.20;99.90;;;;;;5035905;28;21926;-82
2023/01/25 13:21:49;;;;;;;0.30;0.30;;;2.40;99.90;;;;;;5042994;28;20840;-82
2023/01/25 13:24:33;;;;;;;0.10;0.10;;;2.60;99.90;;;;;;5056053;28;20181;-82